Time;durP1;ratioP1;P1;durP2;ratioP2;P2;SDS_P1;SDS_P2;PMS_P1;PMS_P2;Temp;Humidity;BMP_temperature;BMP_pressure;BME280_temperature;BME280_humidity;BME280_pressure;Samples;Min_cycle;Max_cycle;Signal;HPM_P1;HPM_P2
2023/01/07 00:01:07;;;;;;;16.52;10.30;;;;;;;;;;4953129;28;20059;-76
2023/01/07 00:03:34;;;;;;;16.73;11.02;;;;;;;;;;4958961;28;20055;-72
2023/01/07 00:06:01;;;;;;;15.73;10.18;;;;;;;;;;4952608;28;20122;-72
2023/01/07 00:08:33;;;;;;;18.50;10.48;;;;;;;;;;4964413;28;20408;-75
2023/01/07 00:11:04;;;;;;;16.70;10.50;;;;;;;;;;4962861;28;20170;-77
2023/01/07 00:13:30;;;;;;;18.17;11.13;;;;;;;;;;4958427;28;20053;-77
2023/01/07 00:16:01;;;;;;;16.60;10.07;;;;;;;;;;4961277;28;20039;-75
2023/01/07 00:18:28;;;;;;;20.02;10.95;;;;;;;;;;4962437;28;20101;-72
2023/01/07 00:20:57;;;;;;;16.95;9.93;;;;;;;;;;4961920;28;20059;-74
2023/01/07 00:23:25;;;;;;;16.73;10.90;;;;;;;;;;4955898;28;20046;-73
2023/01/07 00:25:51;;;;;;;17.52;10.77;;;;;;;;;;4958822;28;20062;-74
2023/01/07 00:28:17;;;;;;;17.20;10.23;;;;;;;;;;4964598;28;20417;-77
2023/01/07 00:30:43;;;;;;;15.20;10.18;;;;;;;;;;4958487;28;20043;-79
2023/01/07 00:33:13;;;;;;;19.65;11.80;;;;;;;;;;4960424;28;20062;-77
2023/01/07 00:35:39;;;;;;;17.85;10.50;;;;;;;;;;4954403;28;20059;-70
2023/01/07 00:38:07;;;;;;;17.73;9.82;;;;;;;;;;4963652;28;20051;-70
2023/01/07 00:40:33;;;;;;;18.13;10.52;;;;;;;;;;4962323;28;20177;-73
2023/01/07 00:43:05;;;;;;;15.63;10.18;;;;;;;;;;4955865;28;20057;-71
2023/01/07 00:45:34;;;;;;;17.73;10.43;;;;;;;;;;4955121;28;20050;-73
2023/01/07 00:48:02;;;;;;;14.95;9.93;;;;;;;;;;4959357;28;20058;-72
2023/01/07 00:50:32;;;;;;;23.42;10.27;;;;;;;;;;4956783;28;20047;-78
2023/01/07 00:52:58;;;;;;;16.15;10.75;;;;;;;;;;4960248;28;20049;-77
2023/01/07 00:55:25;;;;;;;14.73;9.88;;;;;;;;;;4952823;28;20043;-78
2023/01/07 00:57:52;;;;;;;14.82;10.23;;;;;;;;;;4963138;28;20393;-74
2023/01/07 01:00:19;;;;;;;18.08;10.50;;;;;;;;;;4949448;28;20402;-76
2023/01/07 01:02:47;;;;;;;17.33;10.30;;;;;;;;;;4947573;28;20706;-72
2023/01/07 01:05:13;;;;;;;15.20;10.52;;;;;;;;;;4951793;28;20057;-76
2023/01/07 01:07:40;;;;;;;15.30;10.20;;;;;;;;;;4960991;28;20062;-71
2023/01/07 01:10:09;;;;;;;17.20;10.43;;;;;;;;;;4962572;28;20266;-72
2023/01/07 01:12:36;;;;;;;16.60;10.50;;;;;;;;;;4959412;28;20165;-75
2023/01/07 01:15:07;;;;;;;14.60;10.40;;;;;;;;;;4958259;28;20051;-77
2023/01/07 01:17:33;;;;;;;15.65;10.73;;;;;;;;;;4955210;28;20050;-76
2023/01/07 01:19:59;;;;;;;15.43;9.88;;;;;;;;;;4960372;28;20120;-71
2023/01/07 01:22:27;;;;;;;18.38;10.48;;;;;;;;;;4955347;28;20042;-73
2023/01/07 01:24:52;;;;;;;20.05;9.13;;;;;;;;;;4961434;28;20520;-72
2023/01/07 01:27:19;;;;;;;14.10;9.60;;;;;;;;;;4963130;28;20225;-74
2023/01/07 01:29:45;;;;;;;14.43;9.73;;;;;;;;;;4956519;28;20114;-73
2023/01/07 01:32:11;;;;;;;13.35;8.93;;;;;;;;;;4957181;28;20047;-74
2023/01/07 01:34:37;;;;;;;14.80;9.63;;;;;;;;;;4955117;28;20053;-77
2023/01/07 01:37:03;;;;;;;15.38;9.75;;;;;;;;;;4955657;28;20081;-70
2023/01/07 01:39:29;;;;;;;13.27;8.73;;;;;;;;;;4960171;28;20043;-70
2023/01/07 01:41:55;;;;;;;13.00;8.75;;;;;;;;;;4953421;28;20126;-71
2023/01/07 01:44:52;;;;;;;14.95;9.10;;;;;;;;;;4951889;28;20805;-71
2023/01/07 01:47:28;;;;;;;13.52;9.20;;;;;;;;;;4959563;28;20063;-72
2023/01/07 01:50:05;;;;;;;16.17;9.93;;;;;;;;;;4953684;28;20067;-75
2023/01/07 01:52:39;;;;;;;13.50;9.75;;;;;;;;;;4957672;28;20051;-72
2023/01/07 01:55:08;;;;;;;15.63;10.10;;;;;;;;;;4955141;28;20054;-70
2023/01/07 01:57:37;;;;;;;14.32;10.50;;;;;;;;;;4961460;28;20258;-71
2023/01/07 02:00:04;;;;;;;15.52;10.48;;;;;;;;;;4951270;28;20373;-72
2023/01/07 02:02:42;;;;;;;14.48;10.23;;;;;;;;;;4958265;28;20055;-72
2023/01/07 02:05:08;;;;;;;17.40;10.13;;;;;;;;;;4959723;28;20476;-70
2023/01/07 02:07:34;;;;;;;18.02;10.10;;;;;;;;;;4954021;28;20134;-75
2023/01/07 02:10:15;;;;;;;16.23;9.75;;;;;;;;;;4963601;28;20070;-74
2023/01/07 02:13:11;;;;;;;15.95;10.30;;;;;;;;;;4948733;28;20051;-79
2023/01/07 02:16:11;;;;;;;16.73;10.18;;;;;;;;;;4953059;28;20050;-79
2023/01/07 02:18:40;;;;;;;18.10;10.82;;;;;;;;;;4961238;28;20062;-71
2023/01/07 02:21:39;;;;;;;15.85;9.82;;;;;;;;;;4956357;28;20054;-70
2023/01/07 02:24:24;;;;;;;20.02;10.45;;;;;;;;;;4958743;28;20054;-75
2023/01/07 02:27:01;;;;;;;16.48;9.93;;;;;;;;;;4961174;28;20085;-69
2023/01/07 02:29:46;;;;;;;18.27;10.90;;;;;;;;;;4957537;28;20050;-72
2023/01/07 02:32:42;;;;;;;16.35;10.90;;;;;;;;;;4953915;28;20055;-78
2023/01/07 02:35:17;;;;;;;19.55;10.15;;;;;;;;;;4954430;28;20070;-70
2023/01/07 02:38:13;;;;;;;20.48;11.90;;;;;;;;;;4961065;28;20102;-73
2023/01/07 02:40:51;;;;;;;14.98;10.18;;;;;;;;;;4957025;28;20055;-78
2023/01/07 02:43:40;;;;;;;17.05;10.13;;;;;;;;;;4967690;28;20046;-73
2023/01/07 02:46:24;;;;;;;14.48;10.07;;;;;;;;;;4958661;28;20067;-72
2023/01/07 02:48:51;;;;;;;18.85;11.25;;;;;;;;;;4957647;28;20075;-70
2023/01/07 02:51:17;;;;;;;18.45;10.23;;;;;;;;;;4959809;28;20055;-72
2023/01/07 02:53:46;;;;;;;17.77;10.82;;;;;;;;;;4958220;28;20054;-75
2023/01/07 02:56:18;;;;;;;16.80;10.15;;;;;;;;;;4963727;28;20074;-72
2023/01/07 02:58:52;;;;;;;17.80;11.55;;;;;;;;;;4961498;28;20362;-73
2023/01/07 03:01:44;;;;;;;18.70;11.55;;;;;;;;;;4960669;28;20055;-76
2023/01/07 03:04:31;;;;;;;16.50;10.48;;;;;;;;;;4959445;28;20046;-73
2023/01/07 03:07:27;;;;;;;17.63;11.13;;;;;;;;;;4956394;28;20210;-76
2023/01/07 03:10:15;;;;;;;16.88;10.77;;;;;;;;;;4965789;28;20055;-72
2023/01/07 03:13:04;;;;;;;16.50;10.13;;;;;;;;;;4958844;28;20086;-78
2023/01/07 03:15:43;;;;;;;17.35;11.45;;;;;;;;;;4960924;28;20181;-79
2023/01/07 03:18:44;;;;;;;18.05;10.68;;;;;;;;;;4956420;28;20400;-71
2023/01/07 03:21:14;;;;;;;16.58;10.90;;;;;;;;;;4927166;28;20444;-69
2023/01/07 03:23:44;;;;;;;16.75;11.43;;;;;;;;;;4957196;28;20612;-77
2023/01/07 03:26:12;;;;;;;17.45;10.35;;;;;;;;;;4960997;28;20536;-72
2023/01/07 03:28:41;;;;;;;15.40;10.65;;;;;;;;;;4959168;28;20051;-73
2023/01/07 03:31:12;;;;;;;15.18;10.27;;;;;;;;;;4954150;28;20074;-72
2023/01/07 03:33:53;;;;;;;14.32;9.45;;;;;;;;;;4959201;28;20074;-71
2023/01/07 03:36:27;;;;;;;21.35;9.45;;;;;;;;;;4953680;28;20055;-74
2023/01/07 03:38:54;;;;;;;22.77;9.82;;;;;;;;;;4960338;28;20050;-72
2023/01/07 03:44:05;;;;;;;18.83;9.32;;;;;;;;;;4960724;28;20540;-75
2023/01/07 03:46:33;;;;;;;14.80;9.15;;;;;;;;;;4963725;28;20394;-76
2023/01/07 03:48:59;;;;;;;13.88;8.90;;;;;;;;;;4957212;28;20058;-71
2023/01/07 03:51:24;;;;;;;15.50;9.85;;;;;;;;;;4959067;28;20409;-79
2023/01/07 03:53:50;;;;;;;18.63;9.18;;;;;;;;;;4958643;28;20161;-75
2023/01/07 03:56:16;;;;;;;14.18;9.13;;;;;;;;;;4962484;28;20472;-76
2023/01/07 03:58:42;;;;;;;13.93;9.52;;;;;;;;;;4954496;28;20054;-73
2023/01/07 04:01:08;;;;;;;15.88;9.32;;;;;;;;;;4953340;28;20058;-76
2023/01/07 04:03:34;;;;;;;12.05;8.45;;;;;;;;;;4960048;28;20105;-70
2023/01/07 04:06:00;;;;;;;13.50;8.48;;;;;;;;;;4960690;28;20054;-73
2023/01/07 04:08:26;;;;;;;18.70;9.68;;;;;;;;;;4960009;28;20062;-73
2023/01/07 04:10:52;;;;;;;14.02;8.57;;;;;;;;;;4954489;28;20075;-71
2023/01/07 04:13:18;;;;;;;11.70;7.95;;;;;;;;;;4957698;28;20063;-71
2023/01/07 04:15:43;;;;;;;14.90;8.52;;;;;;;;;;4956535;28;20043;-74
2023/01/07 04:18:09;;;;;;;14.27;8.10;;;;;;;;;;4955514;28;20066;-71
2023/01/07 04:20:35;;;;;;;12.30;7.80;;;;;;;;;;4956169;28;20075;-75
2023/01/07 04:23:01;;;;;;;16.60;8.07;;;;;;;;;;4958927;28;20508;-71
2023/01/07 04:25:27;;;;;;;11.65;8.52;;;;;;;;;;4952854;28;20047;-72
2023/01/07 04:27:53;;;;;;;15.25;8.60;;;;;;;;;;4960898;28;20058;-70
2023/01/07 04:30:19;;;;;;;11.65;8.07;;;;;;;;;;4956881;28;20047;-69
2023/01/07 04:32:45;;;;;;;12.38;8.23;;;;;;;;;;4951324;28;20047;-71
2023/01/07 04:35:11;;;;;;;14.35;8.15;;;;;;;;;;4953307;28;20062;-72
2023/01/07 04:37:37;;;;;;;13.32;8.63;;;;;;;;;;4957010;28;20062;-72
2023/01/07 04:40:03;;;;;;;10.68;7.78;;;;;;;;;;4954310;28;20047;-72
2023/01/07 04:42:29;;;;;;;15.25;8.43;;;;;;;;;;4954146;28;20062;-77
2023/01/07 04:44:55;;;;;;;12.93;8.10;;;;;;;;;;4953536;28;20047;-68
2023/01/07 04:47:21;;;;;;;12.38;8.13;;;;;;;;;;4959408;28;20511;-77
2023/01/07 04:49:47;;;;;;;10.88;8.35;;;;;;;;;;4955792;28;20044;-70
2023/01/07 04:52:13;;;;;;;10.90;8.05;;;;;;;;;;4952853;28;20046;-78
2023/01/07 04:54:39;;;;;;;15.13;8.13;;;;;;;;;;4950396;28;20093;-72
2023/01/07 04:57:05;;;;;;;13.88;7.93;;;;;;;;;;4957902;28;20086;-72
2023/01/07 04:59:30;;;;;;;12.10;8.10;;;;;;;;;;4957109;28;20055;-76
2023/01/07 05:01:57;;;;;;;14.13;7.63;;;;;;;;;;4958706;28;20054;-73
2023/01/07 05:04:22;;;;;;;15.95;7.63;;;;;;;;;;4956513;28;20043;-72
2023/01/07 05:06:48;;;;;;;12.48;7.47;;;;;;;;;;4954539;28;20047;-77
2023/01/07 05:09:14;;;;;;;11.50;7.13;;;;;;;;;;4959339;28;20461;-74
2023/01/07 05:11:40;;;;;;;11.77;7.65;;;;;;;;;;4961071;28;20050;-75
2023/01/07 05:14:06;;;;;;;10.25;6.82;;;;;;;;;;4962642;28;20260;-71
2023/01/07 05:16:32;;;;;;;14.40;7.93;;;;;;;;;;4955941;28;20066;-73
2023/01/07 05:18:58;;;;;;;12.70;7.88;;;;;;;;;;4955353;28;20047;-69
2023/01/07 05:21:24;;;;;;;11.15;7.18;;;;;;;;;;4957262;28;20153;-71
2023/01/07 05:23:50;;;;;;;14.30;7.65;;;;;;;;;;4955448;28;20051;-69
2023/01/07 05:26:16;;;;;;;12.13;7.35;;;;;;;;;;4958734;28;20133;-72
2023/01/07 05:28:42;;;;;;;12.68;6.78;;;;;;;;;;4953041;28;20633;-73
2023/01/07 05:31:08;;;;;;;12.73;7.38;;;;;;;;;;4957023;28;20051;-73
2023/01/07 05:33:34;;;;;;;12.45;7.03;;;;;;;;;;4969633;28;20066;-72
2023/01/07 05:36:00;;;;;;;10.93;7.30;;;;;;;;;;4960775;28;20069;-77
2023/01/07 05:38:26;;;;;;;11.07;7.45;;;;;;;;;;4959161;28;20145;-71
2023/01/07 05:40:52;;;;;;;11.52;7.13;;;;;;;;;;4959057;28;20051;-75
2023/01/07 05:43:18;;;;;;;10.95;7.20;;;;;;;;;;4957490;28;20057;-75
2023/01/07 05:45:45;;;;;;;12.05;6.72;;;;;;;;;;4959010;28;20043;-73
2023/01/07 05:48:11;;;;;;;10.15;6.82;;;;;;;;;;4955428;28;20145;-73
2023/01/07 05:50:37;;;;;;;11.52;5.97;;;;;;;;;;4950345;28;20062;-76
2023/01/07 05:53:03;;;;;;;11.95;6.47;;;;;;;;;;4953622;28;20039;-74
2023/01/07 05:55:29;;;;;;;9.15;5.68;;;;;;;;;;4957420;28;20055;-71
2023/01/07 05:57:55;;;;;;;8.95;5.85;;;;;;;;;;4960973;28;20054;-74
2023/01/07 06:00:21;;;;;;;8.73;5.75;;;;;;;;;;4955657;28;20051;-72
2023/01/07 06:02:47;;;;;;;13.25;5.40;;;;;;;;;;4954428;28;20054;-71
2023/01/07 06:05:14;;;;;;;7.18;4.35;;;;;;;;;;4956629;28;20061;-72
2023/01/07 06:07:39;;;;;;;6.82;4.65;;;;;;;;;;4959652;28;20050;-77
2023/01/07 06:10:06;;;;;;;7.82;4.65;;;;;;;;;;4965745;28;20047;-75
2023/01/07 06:12:33;;;;;;;7.22;4.13;;;;;;;;;;4958257;28;20114;-69
2023/01/07 06:14:59;;;;;;;8.27;4.75;;;;;;;;;;4956456;28;20438;-68
2023/01/07 06:17:24;;;;;;;7.18;4.50;;;;;;;;;;4962354;28;20055;-70
2023/01/07 06:19:51;;;;;;;6.03;4.13;;;;;;;;;;4962080;28;20515;-74
2023/01/07 06:22:16;;;;;;;8.35;4.15;;;;;;;;;;4955890;28;20047;-71
2023/01/07 06:24:42;;;;;;;6.88;4.30;;;;;;;;;;4964473;28;20061;-78
2023/01/07 06:27:09;;;;;;;5.28;3.85;;;;;;;;;;4956122;28;20051;-69
2023/01/07 06:29:35;;;;;;;7.45;3.95;;;;;;;;;;4963640;28;20051;-71
2023/01/07 06:32:01;;;;;;;7.75;3.90;;;;;;;;;;4957148;28;20055;-70
2023/01/07 06:34:27;;;;;;;9.93;3.63;;;;;;;;;;4953307;28;20055;-72
2023/01/07 06:36:53;;;;;;;6.82;3.88;;;;;;;;;;4955369;28;20058;-78
2023/01/07 06:39:19;;;;;;;6.57;3.63;;;;;;;;;;4963862;28;20126;-72
2023/01/07 06:41:45;;;;;;;6.80;4.07;;;;;;;;;;4965248;28;20528;-72
2023/01/07 06:44:11;;;;;;;7.53;3.72;;;;;;;;;;4959316;28;20055;-73
2023/01/07 06:46:37;;;;;;;4.93;3.67;;;;;;;;;;4971931;28;20434;-70
2023/01/07 06:49:03;;;;;;;5.63;3.40;;;;;;;;;;4959328;28;20090;-75
2023/01/07 06:51:29;;;;;;;6.65;4.07;;;;;;;;;;4960662;28;20082;-70
2023/01/07 06:53:55;;;;;;;9.23;4.10;;;;;;;;;;4955643;28;20077;-74
2023/01/07 06:56:21;;;;;;;6.72;3.92;;;;;;;;;;4951648;28;20644;-78
2023/01/07 06:58:47;;;;;;;9.07;4.32;;;;;;;;;;4959183;28;20049;-76
2023/01/07 07:01:12;;;;;;;6.00;4.00;;;;;;;;;;4953630;28;20080;-71
2023/01/07 07:03:39;;;;;;;7.13;3.90;;;;;;;;;;4953576;28;20428;-78
2023/01/07 07:06:05;;;;;;;6.95;4.13;;;;;;;;;;4953961;28;20061;-71
2023/01/07 07:08:31;;;;;;;7.22;4.50;;;;;;;;;;4962326;28;20511;-72
2023/01/07 07:10:56;;;;;;;6.82;4.38;;;;;;;;;;4962070;28;20070;-70
2023/01/07 07:13:22;;;;;;;7.85;4.38;;;;;;;;;;4959166;28;20051;-76
2023/01/07 07:15:48;;;;;;;10.50;4.40;;;;;;;;;;4961173;28;20050;-71
2023/01/07 07:18:16;;;;;;;8.38;4.20;;;;;;;;;;4957585;28;20122;-69
2023/01/07 07:20:41;;;;;;;7.13;4.43;;;;;;;;;;4960153;28;20126;-74
2023/01/07 07:23:08;;;;;;;7.78;4.32;;;;;;;;;;4950486;28;20055;-71
2023/01/07 07:25:33;;;;;;;8.07;4.97;;;;;;;;;;4957337;28;20043;-77
2023/01/07 07:27:59;;;;;;;7.50;4.18;;;;;;;;;;4960367;28;20064;-72
2023/01/07 07:30:25;;;;;;;8.77;5.15;;;;;;;;;;4955715;28;20156;-77
2023/01/07 07:32:51;;;;;;;9.02;4.80;;;;;;;;;;4957166;28;20050;-74
2023/01/07 07:35:17;;;;;;;9.13;4.63;;;;;;;;;;4955920;28;20102;-73
2023/01/07 07:37:43;;;;;;;7.65;4.68;;;;;;;;;;4954689;28;20909;-72
2023/01/07 07:40:10;;;;;;;9.00;4.63;;;;;;;;;;4956362;28;20055;-71
2023/01/07 07:42:39;;;;;;;6.00;3.83;;;;;;;;;;4958183;28;20497;-73
2023/01/07 07:45:06;;;;;;;10.00;4.25;;;;;;;;;;4953112;28;20042;-73
2023/01/07 07:47:32;;;;;;;9.80;4.22;;;;;;;;;;4958117;28;20105;-74
2023/01/07 07:49:58;;;;;;;7.13;4.28;;;;;;;;;;4955834;28;20042;-74
2023/01/07 07:52:24;;;;;;;9.93;4.60;;;;;;;;;;4954721;28;20297;-76
2023/01/07 07:54:49;;;;;;;6.05;4.18;;;;;;;;;;4951674;28;20135;-80
2023/01/07 07:57:15;;;;;;;8.40;4.38;;;;;;;;;;4953106;28;20051;-73
2023/01/07 07:59:41;;;;;;;7.15;4.05;;;;;;;;;;4957363;28;20062;-72
2023/01/07 08:02:12;;;;;;;9.55;4.78;;;;;;;;;;4957128;28;20053;-73
2023/01/07 08:04:38;;;;;;;7.68;4.63;;;;;;;;;;4951458;28;20290;-69
2023/01/07 08:07:04;;;;;;;9.52;4.88;;;;;;;;;;4950760;28;20813;-77
2023/01/07 08:09:30;;;;;;;12.98;4.45;;;;;;;;;;4955860;28;20051;-72
2023/01/07 08:11:56;;;;;;;7.65;4.25;;;;;;;;;;4953375;28;20146;-72
2023/01/07 08:14:22;;;;;;;8.55;4.78;;;;;;;;;;4952131;28;20062;-76
2023/01/07 08:16:48;;;;;;;11.98;4.72;;;;;;;;;;4953796;28;20055;-74
2023/01/07 08:19:14;;;;;;;9.48;4.65;;;;;;;;;;4949723;28;20066;-78
2023/01/07 08:21:40;;;;;;;12.35;5.40;;;;;;;;;;4947224;28;20611;-77
2023/01/07 08:24:06;;;;;;;12.05;5.50;;;;;;;;;;4952922;28;20055;-75
2023/01/07 08:26:32;;;;;;;11.45;5.10;;;;;;;;;;4951658;28;20400;-74
2023/01/07 08:28:58;;;;;;;7.40;4.82;;;;;;;;;;4951477;28;20054;-74
2023/01/07 08:31:24;;;;;;;10.18;4.97;;;;;;;;;;4954713;28;20043;-75
2023/01/07 08:33:49;;;;;;;8.82;4.88;;;;;;;;;;4954317;28;20063;-74
2023/01/07 08:36:16;;;;;;;10.05;5.30;;;;;;;;;;4966351;28;20062;-75
2023/01/07 08:38:43;;;;;;;10.05;5.35;;;;;;;;;;4951009;28;20046;-74
2023/01/07 08:41:09;;;;;;;8.32;4.40;;;;;;;;;;4949922;28;20618;-73
2023/01/07 08:43:35;;;;;;;13.15;5.78;;;;;;;;;;4952337;28;20050;-76
2023/01/07 08:46:01;;;;;;;11.85;5.68;;;;;;;;;;4952367;28;20058;-78
2023/01/07 08:48:26;;;;;;;10.15;4.68;;;;;;;;;;4950581;28;20703;-79
2023/01/07 08:50:53;;;;;;;12.13;4.68;;;;;;;;;;4949630;28;20062;-77
2023/01/07 08:53:20;;;;;;;11.40;4.88;;;;;;;;;;4954077;28;20171;-76
2023/01/07 08:55:46;;;;;;;8.30;4.25;;;;;;;;;;4952316;28;20578;-75
2023/01/07 08:58:12;;;;;;;11.75;4.25;;;;;;;;;;4959054;28;21062;-74
2023/01/07 09:00:39;;;;;;;7.90;4.43;;;;;;;;;;4953836;28;20050;-74
2023/01/07 09:03:05;;;;;;;10.80;4.53;;;;;;;;;;4957932;28;20053;-71
2023/01/07 09:05:31;;;;;;;9.82;4.68;;;;;;;;;;4959765;28;20042;-71
2023/01/07 09:07:57;;;;;;;9.25;4.72;;;;;;;;;;4951890;28;20054;-80
2023/01/07 09:10:24;;;;;;;8.73;4.53;;;;;;;;;;4958045;28;20286;-75
2023/01/07 09:12:50;;;;;;;9.60;5.20;;;;;;;;;;4955427;28;20109;-80
2023/01/07 09:15:16;;;;;;;14.20;5.22;;;;;;;;;;4949212;28;20142;-74
2023/01/07 09:17:42;;;;;;;15.98;6.13;;;;;;;;;;4950815;28;20540;-73
2023/01/07 09:20:08;;;;;;;9.82;5.60;;;;;;;;;;4950581;28;20245;-76
2023/01/07 09:22:36;;;;;;;11.18;4.70;;;;;;;;;;4952629;28;20085;-74
2023/01/07 09:25:03;;;;;;;10.65;4.25;;;;;;;;;;4950970;28;20051;-76
2023/01/07 09:27:29;;;;;;;10.88;4.55;;;;;;;;;;4949173;28;20055;-74
2023/01/07 09:29:57;;;;;;;11.10;4.88;;;;;;;;;;4948016;28;20054;-80
2023/01/07 09:32:27;;;;;;;7.13;4.10;;;;;;;;;;4950508;28;20610;-75
2023/01/07 09:34:54;;;;;;;10.63;4.70;;;;;;;;;;4956010;28;20425;-76
2023/01/07 09:37:20;;;;;;;13.80;4.68;;;;;;;;;;4954060;28;20510;-74
2023/01/07 09:39:47;;;;;;;7.65;3.80;;;;;;;;;;4951563;28;20184;-75
2023/01/07 09:42:24;;;;;;;14.10;4.43;;;;;;;;;;4955352;28;20273;-75
2023/01/07 09:45:11;;;;;;;9.95;4.38;;;;;;;;;;4951933;28;20062;-77
2023/01/07 09:47:42;;;;;;;7.88;3.47;;;;;;;;;;4954690;28;20059;-75
2023/01/07 09:51:00;;;;;;;7.22;3.90;;;;;;;;;;4954806;28;20062;-74
2023/01/07 09:53:26;;;;;;;9.02;3.38;;;;;;;;;;4954255;28;20146;-77
2023/01/07 09:55:53;;;;;;;8.57;3.85;;;;;;;;;;4954499;28;20051;-74
2023/01/07 09:58:20;;;;;;;5.18;3.30;;;;;;;;;;4954136;28;20055;-77
2023/01/07 10:00:58;;;;;;;6.72;3.45;;;;;;;;;;4953670;28;20916;-74
2023/01/07 10:03:52;;;;;;;9.10;3.80;;;;;;;;;;4950225;28;20397;-78
2023/01/07 10:06:37;;;;;;;4.80;2.85;;;;;;;;;;4950530;28;20366;-76
2023/01/07 10:09:30;;;;;;;5.47;2.67;;;;;;;;;;4951169;28;20051;-76
2023/01/07 10:12:15;;;;;;;9.23;3.42;;;;;;;;;;4950751;28;20129;-77
2023/01/07 10:15:02;;;;;;;14.65;3.30;;;;;;;;;;4950432;28;20057;-76
2023/01/07 10:17:53;;;;;;;7.65;2.72;;;;;;;;;;4954225;28;20129;-75
2023/01/07 10:20:28;;;;;;;5.30;2.70;;;;;;;;;;4949489;28;22384;-73
2023/01/07 10:23:16;;;;;;;9.20;2.50;;;;;;;;;;4947556;28;20059;-76
2023/01/07 10:25:49;;;;;;;5.80;2.70;;;;;;;;;;4939359;28;20053;-76
2023/01/07 10:28:53;;;;;;;8.10;3.13;;;;;;;;;;4952848;28;20066;-76
2023/01/07 10:31:22;;;;;;;5.07;2.42;;;;;;;;;;4919251;28;20055;-74
2023/01/07 10:33:50;;;;;;;4.75;2.80;;;;;;;;;;4952756;28;20070;-76
2023/01/07 10:36:29;;;;;;;4.30;2.75;;;;;;;;;;4949665;28;20098;-78
2023/01/07 10:39:10;;;;;;;8.05;2.90;;;;;;;;;;4955998;28;20058;-77
2023/01/07 10:41:41;;;;;;;4.97;2.70;;;;;;;;;;4953308;28;20145;-76
2023/01/07 10:44:07;;;;;;;5.63;2.58;;;;;;;;;;4958579;28;21265;-74
2023/01/07 10:47:02;;;;;;;10.63;2.60;;;;;;;;;;4954129;28;20046;-76
2023/01/07 10:49:58;;;;;;;4.05;2.63;;;;;;;;;;4959066;28;20054;-76
2023/01/07 10:52:34;;;;;;;6.55;2.97;;;;;;;;;;4952201;28;20047;-76
2023/01/07 10:55:28;;;;;;;7.47;2.45;;;;;;;;;;4953532;28;20058;-75
2023/01/07 10:57:54;;;;;;;7.05;2.78;;;;;;;;;;4955510;28;20051;-76
2023/01/07 11:00:22;;;;;;;8.48;2.47;;;;;;;;;;4957575;28;20931;-76
2023/01/07 11:02:53;;;;;;;6.53;2.47;;;;;;;;;;4961971;28;20484;-75
2023/01/07 11:05:20;;;;;;;3.60;2.20;;;;;;;;;;4962382;28;20170;-76
2023/01/07 11:07:51;;;;;;;4.82;2.60;;;;;;;;;;4957772;28;20323;-76
2023/01/07 11:10:20;;;;;;;7.20;2.70;;;;;;;;;;4952553;28;20408;-77
2023/01/07 11:13:15;;;;;;;5.20;2.30;;;;;;;;;;4958329;28;20043;-75
2023/01/07 11:15:47;;;;;;;;;;;;;;;;;;4955460;28;20047;-77
2023/01/07 11:18:21;;;;;;;4.53;2.30;;;;;;;;;;4957142;28;19926;-75
2023/01/07 11:20:52;;;;;;;14.30;2.90;;;;;;;;;;4964001;28;20047;-74
2023/01/07 11:23:37;;;;;;;8.20;2.63;;;;;;;;;;4960138;28;20047;-72
2023/01/07 11:26:13;;;;;;;4.60;2.45;;;;;;;;;;4956902;28;20051;-74
2023/01/07 11:28:49;;;;;;;8.85;2.70;;;;;;;;;;4956133;28;20062;-77
2023/01/07 11:31:16;;;;;;;7.18;2.65;;;;;;;;;;4962596;28;20043;-69
2023/01/07 11:33:47;;;;;;;6.25;2.75;;;;;;;;;;4958416;28;20114;-75
2023/01/07 11:36:14;;;;;;;10.70;2.47;;;;;;;;;;4967735;28;20129;-77
2023/01/07 11:38:41;;;;;;;7.72;2.50;;;;;;;;;;4971385;28;20401;-76
2023/01/07 11:41:19;;;;;;;10.98;2.60;;;;;;;;;;4965674;28;20548;-78
2023/01/07 11:43:52;;;;;;;8.90;2.40;;;;;;;;;;4960219;28;20575;-74
2023/01/07 11:46:20;;;;;;;10.45;2.47;;;;;;;;;;4963891;28;20047;-76
2023/01/07 11:49:01;;;;;;;12.25;2.80;;;;;;;;;;4957861;28;20196;-77
2023/01/07 11:51:38;;;;;;;8.75;2.70;;;;;;;;;;4964506;28;20063;-76
2023/01/07 11:54:04;;;;;;;17.80;2.90;;;;;;;;;;4969030;28;20275;-76
2023/01/07 11:56:32;;;;;;;7.80;2.70;;;;;;;;;;4952094;28;20058;-76
2023/01/07 11:59:11;;;;;;;6.82;2.95;;;;;;;;;;4962129;28;20047;-77
2023/01/07 12:01:45;;;;;;;3.05;2.20;;;;;;;;;;4957120;28;20156;-81
2023/01/07 12:04:29;;;;;;;4.63;2.50;;;;;;;;;;4964429;28;20146;-81
2023/01/07 12:07:05;;;;;;;9.15;2.70;;;;;;;;;;4958970;28;20405;-78
2023/01/07 12:09:32;;;;;;;5.28;2.50;;;;;;;;;;4964581;28;20055;-75
2023/01/07 12:12:30;;;;;;;3.25;2.15;;;;;;;;;;4967377;28;20117;-78
2023/01/07 12:14:54;;;;;;;5.13;2.10;;;;;;;;;;4961147;28;20074;-75
2023/01/07 12:17:24;;;;;;;4.35;2.42;;;;;;;;;;4954769;28;20102;-75
2023/01/07 12:19:57;;;;;;;6.97;2.70;;;;;;;;;;4965968;28;20055;-79
2023/01/07 12:22:23;;;;;;;6.40;2.45;;;;;;;;;;4957075;28;20481;-76
2023/01/07 12:25:04;;;;;;;4.38;2.40;;;;;;;;;;4962353;28;20121;-77
2023/01/07 12:27:57;;;;;;;4.45;2.60;;;;;;;;;;4951462;28;20055;-74
2023/01/07 12:30:57;;;;;;;4.18;2.50;;;;;;;;;;4954334;28;20146;-79
2023/01/07 12:33:32;;;;;;;5.13;2.25;;;;;;;;;;4960755;28;20054;-77
2023/01/07 12:36:07;;;;;;;4.82;2.50;;;;;;;;;;4963439;28;20378;-76
2023/01/07 12:38:49;;;;;;;4.47;2.33;;;;;;;;;;4958458;28;20053;-77
2023/01/07 12:41:19;;;;;;;4.15;2.33;;;;;;;;;;4965459;28;20485;-75
2023/01/07 12:43:55;;;;;;;5.57;2.22;;;;;;;;;;4962656;28;20463;-76
2023/01/07 12:46:22;;;;;;;9.35;2.50;;;;;;;;;;4954325;28;20649;-77
2023/01/07 12:49:06;;;;;;;4.45;2.03;;;;;;;;;;4957636;28;20054;-78
2023/01/07 12:51:59;;;;;;;5.30;2.15;;;;;;;;;;4955949;28;20050;-75
2023/01/07 12:55:16;;;;;;;3.28;1.90;;;;;;;;;;4962677;28;20070;-78
2023/01/07 12:57:44;;;;;;;4.00;1.95;;;;;;;;;;4883183;29;20060;-75
2023/01/07 13:00:22;;;;;;;5.15;2.30;;;;;;;;;;4884082;29;20550;-76
2023/01/07 13:03:09;;;;;;;3.63;2.10;;;;;;;;;;4883453;29;20048;-78
2023/01/07 13:05:41;;;;;;;5.47;2.33;;;;;;;;;;4885039;29;20052;-73
2023/01/07 13:08:31;;;;;;;7.00;2.25;;;;;;;;;;4887242;29;20060;-79
2023/01/07 13:11:02;;;;;;;5.43;2.00;;;;;;;;;;4887167;29;20841;-78
2023/01/07 13:13:43;;;;;;;4.07;2.20;;;;;;;;;;4886613;29;20044;-77
2023/01/07 13:16:10;;;;;;;4.72;2.20;;;;;;;;;;4877454;29;20056;-79
2023/01/07 13:18:36;;;;;;;8.75;2.60;;;;;;;;;;4883645;29;20082;-76
2023/01/07 13:21:14;;;;;;;6.32;2.20;;;;;;;;;;4886194;29;20113;-78
2023/01/07 13:24:22;;;;;;;3.40;2.10;;;;;;;;;;4884801;29;20044;-74
2023/01/07 13:26:58;;;;;;;6.53;2.85;;;;;;;;;;4873063;29;20052;-77
2023/01/07 13:29:57;;;;;;;4.15;2.20;;;;;;;;;;4886505;29;20056;-74
2023/01/07 13:32:48;;;;;;;4.38;1.92;;;;;;;;;;4898609;29;20055;-75
2023/01/07 13:35:33;;;;;;;7.07;2.30;;;;;;;;;;4953836;28;20075;-75
2023/01/07 13:38:11;;;;;;;7.07;2.25;;;;;;;;;;4962366;28;20049;-77
2023/01/07 13:40:58;;;;;;;5.03;1.98;;;;;;;;;;4947133;28;20087;-76
2023/01/07 13:43:49;;;;;;;8.07;2.65;;;;;;;;;;4963949;28;20043;-76
2023/01/07 13:46:19;;;;;;;3.13;1.85;;;;;;;;;;4960889;28;20066;-77
2023/01/07 13:48:52;;;;;;;4.55;2.13;;;;;;;;;;4956251;28;20051;-81
2023/01/07 13:51:27;;;;;;;3.85;1.90;;;;;;;;;;4957935;28;20046;-76
2023/01/07 13:53:53;;;;;;;5.95;2.13;;;;;;;;;;4952109;28;20700;-77
2023/01/07 13:56:19;;;;;;;3.90;2.15;;;;;;;;;;4961399;28;20061;-74
2023/01/07 13:58:47;;;;;;;7.43;2.25;;;;;;;;;;4960418;28;20135;-77
2023/01/07 14:01:18;;;;;;;5.07;2.05;;;;;;;;;;4950960;28;20051;-75
2023/01/07 14:03:45;;;;;;;2.90;2.00;;;;;;;;;;4960009;28;20548;-73
2023/01/07 14:06:17;;;;;;;6.38;2.30;;;;;;;;;;4966025;28;20062;-75
2023/01/07 14:08:54;;;;;;;3.97;2.22;;;;;;;;;;4956451;28;20046;-79
2023/01/07 14:11:29;;;;;;;3.83;2.10;;;;;;;;;;4959003;28;20631;-74
2023/01/07 14:14:01;;;;;;;5.55;2.38;;;;;;;;;;4966328;28;20051;-81
2023/01/07 14:16:36;;;;;;;5.57;2.10;;;;;;;;;;4956455;28;20063;-73
2023/01/07 14:19:23;;;;;;;6.57;2.40;;;;;;;;;;4970466;28;20058;-77
2023/01/07 14:22:20;;;;;;;3.88;2.13;;;;;;;;;;4969182;28;20084;-77
2023/01/07 14:25:00;;;;;;;3.50;2.13;;;;;;;;;;4955766;28;20484;-78
2023/01/07 14:27:41;;;;;;;3.45;2.17;;;;;;;;;;4960085;28;20059;-83
2023/01/07 14:30:26;;;;;;;7.35;2.17;;;;;;;;;;4967963;28;20069;-75
2023/01/07 14:33:24;;;;;;;4.43;2.33;;;;;;;;;;4958545;28;20070;-77
2023/01/07 14:35:55;;;;;;;10.43;2.38;;;;;;;;;;4957446;28;20059;-78
2023/01/07 14:38:30;;;;;;;5.28;2.00;;;;;;;;;;4970262;28;20771;-81
2023/01/07 14:41:08;;;;;;;5.63;2.58;;;;;;;;;;4965334;28;20069;-73
2023/01/07 14:43:42;;;;;;;4.90;2.00;;;;;;;;;;4959342;28;20149;-73
2023/01/07 14:46:09;;;;;;;12.55;2.30;;;;;;;;;;4964449;28;20050;-83
2023/01/07 14:48:36;;;;;;;6.43;2.38;;;;;;;;;;4963891;28;20051;-74
2023/01/07 14:51:52;;;;;;;5.72;2.45;;;;;;;;;;4964115;28;20563;-74
2023/01/07 14:54:49;;;;;;;5.63;2.20;;;;;;;;;;4951544;28;20051;-74
2023/01/07 14:57:39;;;;;;;5.00;2.05;;;;;;;;;;4962273;28;20452;-73
2023/01/07 15:00:34;;;;;;;5.53;2.10;;;;;;;;;;4960065;28;20082;-74
2023/01/07 15:03:15;;;;;;;3.88;1.90;;;;;;;;;;4950860;28;20488;-74
2023/01/07 15:06:09;;;;;;;6.28;2.13;;;;;;;;;;4961949;28;20139;-76